createdAt,value
2023-02-07T00:04:17.911Z,100828.88
2023-02-07T00:09:22.964Z,100826.06
2023-02-07T00:14:26.517Z,100822.28
2023-02-07T00:19:30.171Z,100826.66
2023-02-07T00:24:34.992Z,100836.59
2023-02-07T00:29:38.839Z,100843.19
2023-02-07T00:34:42.320Z,100841.31
2023-02-07T00:39:47.334Z,100839.34
2023-02-07T00:44:50.844Z,100846.13
2023-02-07T00:49:54.486Z,100845.09
2023-02-07T00:54:59.443Z,100848.19
2023-02-07T01:00:03.090Z,100846.16
2023-02-07T01:05:08.135Z,100858.59
2023-02-07T01:10:13.549Z,100858.53
2023-02-07T01:15:17.165Z,100859.66
2023-02-07T01:20:20.768Z,100868.09
2023-02-07T01:25:26.264Z,100866.59
2023-02-07T01:30:30.060Z,100867.97
2023-02-07T01:35:33.857Z,100871.50
2023-02-07T01:40:39.836Z,100873.06
2023-02-07T01:45:43.396Z,100891.56
2023-02-07T01:50:50.798Z,100901.13
2023-02-07T01:55:58.213Z,100894.22
2023-02-07T02:01:06.255Z,100899.81
2023-02-07T02:06:10.183Z,100900.31
2023-02-07T02:11:34.891Z,100914.78
2023-02-07T02:16:44.357Z,100912.09
2023-02-07T02:22:20.800Z,100918.28
2023-02-07T02:27:42.355Z,100934.72
2023-02-07T02:33:15.367Z,100946.81
2023-02-07T02:38:27.985Z,100946.47
2023-02-07T02:43:39.594Z,100947.63
2023-02-07T02:48:44.771Z,100946.97
2023-02-07T02:53:55.113Z,100950.25
2023-02-07T02:59:16.422Z,100964.94
2023-02-07T03:04:39.788Z,100961.22
2023-02-07T03:09:51.844Z,100995.16
2023-02-07T03:15:03.023Z,101002.59
2023-02-07T03:20:16.010Z,101001.97
2023-02-07T03:25:22.554Z,101010.53
2023-02-07T03:30:31.073Z,101013.44
2023-02-07T03:35:40.014Z,101016.41
2023-02-07T03:40:48.278Z,101035.03
2023-02-07T03:45:51.972Z,101030.84
2023-02-07T03:50:55.714Z,101039.59
2023-02-07T03:56:00.614Z,101050.63
2023-02-07T04:01:04.290Z,101057.63
2023-02-07T04:06:08.103Z,101057.78
2023-02-07T04:11:13.446Z,101067.28
2023-02-07T04:16:17.209Z,101078.94
2023-02-07T04:21:20.969Z,101069.69
2023-02-07T04:26:26.031Z,101080.63
2023-02-07T04:31:29.761Z,101093.69
2023-02-07T04:36:33.484Z,101102.56
2023-02-07T04:41:39.205Z,101112.88
2023-02-07T04:46:42.938Z,101113.47
2023-02-07T04:51:46.659Z,101122.34
2023-02-07T04:56:51.758Z,101126.84
2023-02-07T05:01:55.372Z,101129.41
2023-02-07T05:06:59.186Z,101138.69
2023-02-07T05:12:04.237Z,101143.28
2023-02-07T05:17:07.914Z,101146.81
2023-02-07T05:22:11.352Z,101141.34
2023-02-07T05:27:16.327Z,101159.38
2023-02-07T05:32:36.832Z,101168.69
2023-02-07T05:37:40.470Z,101180.47
2023-02-07T05:42:45.339Z,101191.56
2023-02-07T05:47:48.960Z,101194.22
2023-02-07T05:52:52.571Z,101189.50
2023-02-07T05:57:57.789Z,101189.38
2023-02-07T06:03:01.153Z,101197.03
2023-02-07T06:08:04.970Z,101200.19
2023-02-07T06:13:09.860Z,101205.66
2023-02-07T06:18:13.514Z,101218.09
2023-02-07T06:23:17.006Z,101230.81
2023-02-07T06:28:22.236Z,101229.28
2023-02-07T06:33:25.829Z,101232.22
2023-02-07T06:38:29.531Z,101251.28
2023-02-07T06:43:34.524Z,101260.31
2023-02-07T06:48:38.166Z,101252.28
2023-02-07T06:53:41.870Z,101262.22
2023-02-07T06:58:47.043Z,101260.69
2023-02-07T07:03:52.061Z,101272.75
2023-02-07T07:08:55.898Z,101285.59
2023-02-07T07:14:03.137Z,101288.53
2023-02-07T07:19:06.867Z,101283.34
2023-02-07T07:24:10.442Z,101297.44
2023-02-07T07:29:15.671Z,101319.72
2023-02-07T07:34:19.216Z,101316.53
2023-02-07T07:39:22.921Z,101326.31
2023-02-07T07:44:27.996Z,101287.91
2023-02-07T07:49:31.789Z,101315.75
2023-02-07T07:54:35.276Z,101305.44
2023-02-07T07:59:40.326Z,101317.41
2023-02-07T08:04:43.877Z,101334.97
2023-02-07T08:09:47.661Z,101334.44
2023-02-07T08:14:52.593Z,101346.66
2023-02-07T08:19:56.246Z,101322.00
2023-02-07T08:24:59.926Z,101339.81
2023-02-07T08:30:08.682Z,101336.91
2023-02-07T08:35:12.484Z,101341.50
2023-02-07T08:40:16.140Z,101340.72
2023-02-07T08:45:21.118Z,101348.47
2023-02-07T08:50:24.842Z,101351.97
2023-02-07T08:55:28.428Z,101338.72
2023-02-07T09:00:35.759Z,101346.72
2023-02-07T09:05:39.294Z,101353.91
2023-02-07T09:10:43.590Z,101353.16
2023-02-07T09:15:55.062Z,101350.84
2023-02-07T09:20:58.581Z,101363.44
2023-02-07T09:26:03.510Z,101363.91
2023-02-07T09:31:12.763Z,101362.50
2023-02-07T09:36:20.778Z,101370.16
2023-02-07T09:41:33.442Z,101380.75
2023-02-07T09:46:41.924Z,101380.19
2023-02-07T09:51:46.797Z,101376.03
2023-02-07T09:56:52.665Z,101387.56
2023-02-07T10:02:02.653Z,101387.50
2023-02-07T10:07:10.479Z,101388.88
2023-02-07T10:12:30.244Z,101399.16
2023-02-07T10:17:51.334Z,101400.50
2023-02-07T10:23:04.155Z,101399.22
2023-02-07T10:28:37.067Z,101386.47
2023-02-07T10:33:56.653Z,101379.44
2023-02-07T10:39:09.711Z,101376.25
2023-02-07T10:44:17.822Z,101367.09
2023-02-07T10:49:26.101Z,101376.09
2023-02-07T10:54:30.889Z,101384.56
2023-02-07T10:59:46.181Z,101389.72
2023-02-07T11:04:51.329Z,101392.06
2023-02-07T11:10:17.084Z,101396.56
2023-02-07T11:15:23.557Z,101391.13
2023-02-07T11:20:32.276Z,101396.28
2023-02-07T11:25:39.875Z,101394.50
2023-02-07T11:30:43.823Z,101398.69
2023-02-07T11:36:06.214Z,101404.06
2023-02-07T11:41:22.210Z,101395.84
2023-02-07T11:46:34.756Z,101410.53
2023-02-07T11:51:39.711Z,101409.50
2023-02-07T11:56:46.216Z,101407.69
2023-02-07T12:01:52.334Z,101413.00
2023-02-07T12:07:02.982Z,101405.69
2023-02-07T12:12:20.864Z,101406.38
2023-02-07T12:17:28.990Z,101406.22
2023-02-07T12:22:42.042Z,101406.84
2023-02-07T12:27:51.529Z,101407.66
2023-02-07T12:33:03.304Z,101421.19
2023-02-07T12:38:18.392Z,101424.47
2023-02-07T12:43:26.281Z,101414.47
2023-02-07T12:48:42.333Z,101427.81
2023-02-07T12:54:08.415Z,101421.28
2023-02-07T12:59:21.589Z,101425.38
2023-02-07T13:04:49.019Z,101428.69
2023-02-07T13:10:02.341Z,101426.53
2023-02-07T13:15:18.073Z,101420.94
2023-02-07T13:20:32.843Z,101417.66
2023-02-07T13:25:40.805Z,101407.19
2023-02-07T13:30:44.523Z,101431.78
2023-02-07T13:35:49.374Z,101435.34
2023-02-07T13:41:00.262Z,101432.31
2023-02-07T13:46:13.274Z,101432.56
2023-02-07T13:51:24.845Z,101422.75
2023-02-07T13:56:55.052Z,101425.41
2023-02-07T14:02:01.188Z,101434.47
2023-02-07T14:07:12.172Z,101436.50
2023-02-07T14:12:22.781Z,101440.81
2023-02-07T14:17:59.638Z,101442.84
2023-02-07T14:23:16.161Z,101435.22
2023-02-07T14:28:31.283Z,101452.78
2023-02-07T14:33:36.924Z,101453.03
2023-02-07T14:38:42.315Z,101448.97
2023-02-07T14:44:08.120Z,101452.50
2023-02-07T14:49:20.015Z,101465.75
2023-02-07T14:54:29.821Z,101450.97
2023-02-07T14:59:40.468Z,101463.19
2023-02-07T15:04:45.252Z,101473.84
2023-02-07T15:09:48.323Z,101477.25
2023-02-07T15:14:54.767Z,101491.00
2023-02-07T15:19:58.183Z,101487.63
2023-02-07T15:25:02.936Z,101479.59
2023-02-07T15:30:11.890Z,101482.66
2023-02-07T15:35:19.815Z,101490.28
2023-02-07T15:40:26.741Z,101488.88
2023-02-07T15:45:34.181Z,101486.28
2023-02-07T15:50:39.531Z,101494.06
2023-02-07T15:55:45.652Z,101487.53
2023-02-07T16:00:52.683Z,101493.53
2023-02-07T16:06:03.669Z,101488.00
2023-02-07T16:11:16.717Z,101486.19
2023-02-07T16:16:25.258Z,101472.69
2023-02-07T16:21:29.284Z,101479.97
2023-02-07T16:26:32.935Z,101497.25
2023-02-07T16:31:37.966Z,101484.06
2023-02-07T16:36:41.749Z,101489.00
2023-02-07T16:41:48.071Z,101498.41
2023-02-07T16:46:53.044Z,101507.25
2023-02-07T16:51:56.587Z,101516.53
2023-02-07T16:57:03.997Z,101515.91
2023-02-07T17:02:15.316Z,101522.00
2023-02-07T17:07:18.801Z,101526.56
2023-02-07T17:12:22.415Z,101537.38
2023-02-07T17:17:27.324Z,101541.59
2023-02-07T17:22:30.669Z,101544.84
2023-02-07T17:27:34.004Z,101559.53
2023-02-07T17:32:38.807Z,101560.00
2023-02-07T17:37:42.351Z,101556.28
2023-02-07T17:42:45.737Z,101571.47
2023-02-07T17:47:50.993Z,101570.59
2023-02-07T17:52:54.459Z,101567.38
2023-02-07T17:57:58.085Z,101564.63
2023-02-07T18:03:02.981Z,101566.81
2023-02-07T18:08:06.797Z,101576.81
2023-02-07T18:13:10.158Z,101589.34
2023-02-07T18:18:16.817Z,101579.44
2023-02-07T18:23:20.649Z,101591.81
2023-02-07T18:28:24.493Z,101604.91
2023-02-07T18:33:29.500Z,101591.03
2023-02-07T18:38:33.051Z,101597.84
2023-02-07T18:43:36.554Z,101593.72
2023-02-07T18:48:41.732Z,101591.13
2023-02-07T18:53:45.668Z,101591.19
2023-02-07T18:58:50.300Z,101604.50
2023-02-07T19:03:56.451Z,101608.25
2023-02-07T19:09:00.277Z,101603.97
2023-02-07T19:14:03.905Z,101589.72
2023-02-07T19:19:09.112Z,101597.09
2023-02-07T19:24:16.115Z,101599.22
2023-02-07T19:29:25.014Z,101624.16
2023-02-07T19:34:30.099Z,101621.44
2023-02-07T19:39:33.833Z,101626.72
2023-02-07T19:44:37.195Z,101608.91
2023-02-07T19:49:42.481Z,101603.22
2023-02-07T19:54:46.288Z,101611.25
2023-02-07T19:59:49.828Z,101608.50
2023-02-07T20:04:55.210Z,101610.06
2023-02-07T20:09:59.036Z,101616.41
2023-02-07T20:15:02.525Z,101612.47
2023-02-07T20:20:09.563Z,101616.13
2023-02-07T20:25:12.945Z,101612.91
2023-02-07T20:30:16.372Z,101603.63
2023-02-07T20:35:21.138Z,101616.00
2023-02-07T20:40:24.323Z,101614.56
2023-02-07T20:45:28.793Z,101619.50
2023-02-07T20:50:35.003Z,101617.03
2023-02-07T20:55:38.385Z,101622.50
2023-02-07T21:00:42.177Z,101627.94
2023-02-07T21:05:47.232Z,101624.25
2023-02-07T21:10:50.760Z,101625.19
2023-02-07T21:16:02.819Z,101632.53
2023-02-07T21:21:10.068Z,101635.28
2023-02-07T21:26:16.417Z,101639.00
2023-02-07T21:31:21.830Z,101625.31
2023-02-07T21:36:28.451Z,101624.50
2023-02-07T21:41:32.266Z,101621.22
2023-02-07T21:46:38.004Z,101609.72
2023-02-07T21:51:44.628Z,101603.91
2023-02-07T21:56:50.532Z,101617.28
2023-02-07T22:01:54.547Z,101615.28
2023-02-07T22:06:59.393Z,101596.28
2023-02-07T22:12:02.999Z,101599.84
2023-02-07T22:17:06.346Z,101605.91
2023-02-07T22:22:11.208Z,101605.44
2023-02-07T22:27:14.578Z,101595.66
2023-02-07T22:32:20.372Z,101616.13
2023-02-07T22:37:25.209Z,101612.00
2023-02-07T22:42:28.686Z,101622.91
2023-02-07T22:47:32.083Z,101615.16
2023-02-07T22:52:37.089Z,101620.03
2023-02-07T22:57:40.605Z,101618.47
2023-02-07T23:02:44.167Z,101628.38
2023-02-07T23:07:49.717Z,101621.00
2023-02-07T23:12:53.258Z,101613.78
2023-02-07T23:17:56.751Z,101626.69
2023-02-07T23:23:01.497Z,101627.75
2023-02-07T23:28:04.617Z,101634.13
2023-02-07T23:33:08.974Z,101617.22
2023-02-07T23:38:13.884Z,101616.13
2023-02-07T23:43:18.115Z,101619.16
2023-02-07T23:48:23.226Z,101614.00
2023-02-07T23:53:28.212Z,101603.38
2023-02-07T23:58:31.725Z,101603.38
